createdAt,value
2022-11-24T00:00:02.253Z,99448.94
2022-11-24T00:03:08.436Z,99435.22
2022-11-24T00:06:13.186Z,99426.06
2022-11-24T00:09:15.536Z,99430.25
2022-11-24T00:12:17.988Z,99429.47
2022-11-24T00:15:20.382Z,99437.84
2022-11-24T00:18:22.733Z,99445.25
2022-11-24T00:21:26.204Z,99447.56
2022-11-24T00:24:28.627Z,99429.19
2022-11-24T00:27:31.024Z,99461.00
2022-11-24T00:30:36.517Z,99464.56
2022-11-24T00:33:38.888Z,99471.66
2022-11-24T00:36:42.054Z,99458.22
2022-11-24T00:39:44.379Z,99469.81
2022-11-24T00:42:46.753Z,99482.34
2022-11-24T00:45:49.220Z,99478.31
2022-11-24T00:48:52.167Z,99478.94
2022-11-24T00:51:54.532Z,99482.03
2022-11-24T00:54:56.870Z,99470.13
2022-11-24T00:57:59.303Z,99481.09
2022-11-24T01:01:07.073Z,99492.22
2022-11-24T01:04:09.616Z,99478.47
2022-11-24T01:07:11.994Z,99464.88
2022-11-24T01:10:14.798Z,99480.31
2022-11-24T01:13:17.462Z,99477.69
2022-11-24T01:16:22.874Z,99479.25
2022-11-24T01:19:25.326Z,99484.66
2022-11-24T01:22:27.965Z,99472.75
2022-11-24T01:25:30.338Z,99484.50
2022-11-24T01:28:32.979Z,99489.28
2022-11-24T01:31:36.979Z,99490.06
2022-11-24T01:34:39.407Z,99479.69
2022-11-24T01:37:41.768Z,99478.91
2022-11-24T01:40:44.406Z,99486.06
2022-11-24T01:43:47.083Z,99476.63
2022-11-24T01:46:53.315Z,99477.06
2022-11-24T01:49:58.698Z,99475.38
2022-11-24T01:53:01.187Z,99475.69
2022-11-24T01:56:04.315Z,99492.06
2022-11-24T01:59:08.014Z,99475.22
2022-11-24T02:02:11.066Z,99471.50
2022-11-24T02:05:31.186Z,99481.41
2022-11-24T02:08:49.177Z,99480.31
2022-11-24T02:11:53.829Z,99489.13
2022-11-24T02:14:56.414Z,99495.47
2022-11-24T02:17:59.163Z,99498.88
2022-11-24T02:21:01.573Z,99504.44
2022-11-24T02:24:14.793Z,99492.38
2022-11-24T02:27:17.396Z,99486.97
2022-11-24T02:30:19.851Z,99491.31
2022-11-24T02:33:22.336Z,99485.72
2022-11-24T02:36:24.841Z,99497.63
2022-11-24T02:39:27.390Z,99507.34
2022-11-24T02:42:34.725Z,99511.66
2022-11-24T02:45:37.056Z,99492.34
2022-11-24T02:48:39.928Z,99499.44
2022-11-24T02:51:42.341Z,99507.94
2022-11-24T02:54:44.723Z,99517.38
2022-11-24T02:57:47.257Z,99523.09
2022-11-24T03:00:49.974Z,99509.47
2022-11-24T03:03:52.389Z,99511.63
2022-11-24T03:06:54.885Z,99520.16
2022-11-24T03:09:57.225Z,99526.00
2022-11-24T03:12:59.614Z,99509.16
2022-11-24T03:16:02.102Z,99509.59
2022-11-24T03:19:05.017Z,99516.13
2022-11-24T03:22:07.439Z,99524.00
2022-11-24T03:25:10.007Z,99535.13
2022-11-24T03:28:12.398Z,99540.22
2022-11-24T03:31:14.817Z,99536.38
2022-11-24T03:34:17.203Z,99541.00
2022-11-24T03:37:19.569Z,99524.28
2022-11-24T03:40:22.403Z,99520.09
2022-11-24T03:43:24.931Z,99533.56
2022-11-24T03:46:27.286Z,99534.97
2022-11-24T03:49:29.723Z,99530.94
2022-11-24T03:52:32.076Z,99529.88
2022-11-24T03:55:34.483Z,99547.34
2022-11-24T03:58:36.936Z,99537.28
2022-11-24T04:01:39.866Z,99555.25
2022-11-24T04:04:45.828Z,99562.97
2022-11-24T04:07:50.939Z,99567.13
2022-11-24T04:10:54.149Z,99565.13
2022-11-24T04:13:56.539Z,99544.56
2022-11-24T04:16:58.927Z,99570.91
2022-11-24T04:20:08.835Z,99563.72
2022-11-24T04:23:11.395Z,99557.63
2022-11-24T04:26:14.375Z,99565.84
2022-11-24T04:29:16.690Z,99578.94
2022-11-24T04:32:19.014Z,99590.06
2022-11-24T04:35:21.500Z,99599.00
2022-11-24T04:39:23.940Z,99605.78
2022-11-24T04:41:47.728Z,99593.78
2022-11-24T04:44:50.235Z,99606.00
2022-11-24T04:47:52.585Z,99586.88
2022-11-24T04:50:55.102Z,99598.91
2022-11-24T04:53:57.430Z,99594.09
2022-11-24T04:56:59.794Z,99611.59
2022-11-24T05:00:02.173Z,99626.31
2022-11-24T05:03:05.275Z,99613.03
2022-11-24T05:06:08.922Z,99622.38
2022-11-24T05:09:14.925Z,99636.06
2022-11-24T05:12:17.789Z,99627.56
2022-11-24T05:15:20.186Z,99627.28
2022-11-24T05:18:22.664Z,99641.66
2022-11-24T05:21:25.036Z,99643.28
2022-11-24T05:24:27.414Z,99646.28
2022-11-24T05:27:29.787Z,99631.97
2022-11-24T05:30:32.695Z,99635.63
2022-11-24T05:33:35.313Z,99655.88
2022-11-24T05:36:52.942Z,99648.25
2022-11-24T05:39:55.432Z,99651.22
2022-11-24T05:42:57.874Z,99640.50
2022-11-24T05:46:01.308Z,99661.44
2022-11-24T05:49:03.791Z,99654.88
2022-11-24T05:52:06.713Z,99675.75
2022-11-24T05:55:10.889Z,99688.19
2022-11-24T05:58:13.314Z,99689.63
2022-11-24T06:01:15.715Z,99681.63
2022-11-24T06:04:18.091Z,99700.03
2022-11-24T06:07:20.791Z,99683.06
2022-11-24T06:10:26.673Z,99691.81
2022-11-24T06:13:29.169Z,99699.41
2022-11-24T06:16:31.731Z,99696.91
2022-11-24T06:19:37.460Z,99712.03
2022-11-24T06:22:44.094Z,99719.78
2022-11-24T06:25:51.413Z,99705.84
2022-11-24T06:28:54.023Z,99724.44
2022-11-24T06:31:56.585Z,99721.81
2022-11-24T06:34:59.116Z,99711.69
2022-11-24T06:38:01.582Z,99724.84
2022-11-24T06:41:06.525Z,99731.84
2022-11-24T06:44:08.983Z,99729.91
2022-11-24T06:47:11.405Z,99727.34
2022-11-24T06:50:16.237Z,99750.28
2022-11-24T06:53:19.065Z,99754.50
2022-11-24T06:56:21.597Z,99759.56
2022-11-24T06:59:24.205Z,99751.69
2022-11-24T07:02:26.833Z,99767.59
2022-11-24T07:05:29.327Z,99756.22
2022-11-24T07:08:31.972Z,99757.88
2022-11-24T07:11:36.828Z,99766.34
2022-11-24T07:14:39.408Z,99770.00
2022-11-24T07:17:42.105Z,99763.59
2022-11-24T07:20:44.696Z,99772.63
2022-11-24T07:23:55.686Z,99774.66
2022-11-24T07:26:58.220Z,99789.75
2022-11-24T07:30:00.785Z,99794.03
2022-11-24T07:33:03.857Z,99795.94
2022-11-24T07:36:07.473Z,99785.31
2022-11-24T07:39:10.026Z,99798.03
2022-11-24T07:42:12.547Z,99792.59
2022-11-24T07:45:15.635Z,99810.75
2022-11-24T07:48:18.094Z,99803.38
2022-11-24T07:51:20.877Z,99805.91
2022-11-24T07:54:23.339Z,99819.03
2022-11-24T07:57:25.758Z,99818.63
2022-11-24T08:00:28.412Z,99798.41
2022-11-24T08:03:30.941Z,99825.28
2022-11-24T08:06:39.730Z,99832.56
2022-11-24T08:09:45.767Z,99822.97
2022-11-24T08:12:48.169Z,99838.25
2022-11-24T08:15:51.107Z,99815.16
2022-11-24T08:18:55.055Z,99826.84
2022-11-24T08:21:57.670Z,99834.78
2022-11-24T08:25:00.054Z,99839.44
2022-11-24T08:28:04.195Z,99842.66
2022-11-24T08:31:21.220Z,99842.25
2022-11-24T08:34:25.032Z,99822.84
2022-11-24T08:37:29.419Z,99846.72
2022-11-24T08:40:33.439Z,99845.66
2022-11-24T08:43:36.108Z,99830.13
2022-11-24T08:46:39.004Z,99853.84
2022-11-24T08:49:42.261Z,99852.59
2022-11-24T08:52:44.827Z,99844.41
2022-11-24T08:55:47.292Z,99840.41
2022-11-24T08:58:49.808Z,99864.34
2022-11-24T09:01:52.691Z,99860.97
2022-11-24T09:04:55.158Z,99831.97
2022-11-24T09:07:58.268Z,99833.78
2022-11-24T09:11:05.311Z,99853.38
2022-11-24T09:14:07.893Z,99860.78
2022-11-24T09:17:10.337Z,99859.97
2022-11-24T09:20:12.965Z,99861.31
2022-11-24T09:23:15.505Z,99853.59
2022-11-24T09:26:21.073Z,99850.06
2022-11-24T09:29:23.676Z,99858.59
2022-11-24T09:32:26.428Z,99858.66
2022-11-24T09:35:29.012Z,99843.31
2022-11-24T09:38:32.061Z,99835.25
2022-11-24T09:41:40.379Z,99862.44
2022-11-24T09:45:07.368Z,99870.81
2022-11-24T09:48:33.986Z,99872.63
2022-11-24T09:51:37.576Z,99883.31
2022-11-24T09:54:56.081Z,99858.66
2022-11-24T09:58:32.981Z,99886.06
2022-11-24T10:01:40.335Z,99880.44
2022-11-24T10:04:46.368Z,99850.78
2022-11-24T10:08:08.690Z,99884.72
2022-11-24T10:11:22.013Z,99854.34
2022-11-24T10:14:51.326Z,99879.78
2022-11-24T10:18:17.477Z,99862.34
2022-11-24T10:21:36.857Z,99886.81
2022-11-24T10:25:07.250Z,99882.78
2022-11-24T10:28:14.504Z,99889.56
2022-11-24T10:31:33.373Z,99886.81
2022-11-24T10:34:57.128Z,99885.25
2022-11-24T10:38:31.497Z,99875.19
2022-11-24T10:41:58.827Z,99872.69
2022-11-24T10:45:06.971Z,99890.06
2022-11-24T10:48:30.821Z,99840.16
2022-11-24T10:51:48.522Z,99872.28
2022-11-24T10:54:59.146Z,99889.28
2022-11-24T10:58:15.789Z,99891.59
2022-11-24T11:01:21.635Z,99890.94
2022-11-24T11:04:32.092Z,99871.78
2022-11-24T11:07:38.890Z,99888.78
2022-11-24T11:10:44.961Z,99848.56
2022-11-24T11:14:04.618Z,99879.16
2022-11-24T11:17:37.016Z,99897.25
2022-11-24T11:20:41.268Z,99870.34
2022-11-24T11:23:46.484Z,99884.63
2022-11-24T11:27:06.085Z,99890.91
2022-11-24T11:34:10.658Z,99890.16
2022-11-24T11:37:20.438Z,99878.75
2022-11-24T11:40:29.293Z,99877.69
2022-11-24T11:43:35.283Z,99873.47
2022-11-24T11:46:38.279Z,99887.75
2022-11-24T11:49:41.429Z,99888.06
2022-11-24T11:52:59.576Z,99886.47
2022-11-24T11:56:17.251Z,99890.88
2022-11-24T11:59:59.163Z,99890.09
2022-11-24T12:03:23.487Z,99896.41
2022-11-24T12:07:03.613Z,99899.97
2022-11-24T12:10:15.190Z,99878.41
2022-11-24T12:13:40.857Z,99905.31
2022-11-24T12:17:05.003Z,99910.16
2022-11-24T12:20:23.371Z,99897.69
2022-11-24T12:23:48.812Z,99928.69
2022-11-24T12:26:55.826Z,99928.09
2022-11-24T12:29:58.375Z,99937.13
2022-11-24T12:33:29.874Z,99924.31
2022-11-24T12:36:47.287Z,99935.78
2022-11-24T12:40:03.943Z,99934.00
2022-11-24T12:43:24.674Z,99941.69
2022-11-24T12:46:53.540Z,99948.47
2022-11-24T12:50:07.174Z,99935.75
2022-11-24T12:53:16.908Z,99944.22
2022-11-24T12:56:28.235Z,99948.69
2022-11-24T12:59:35.264Z,99952.53
2022-11-24T13:02:52.936Z,99952.22
2022-11-24T13:06:11.295Z,99945.84
2022-11-24T13:09:15.519Z,99952.22
2022-11-24T13:12:18.031Z,99958.25
2022-11-24T13:15:44.645Z,99941.78
2022-11-24T13:18:47.856Z,99935.66
2022-11-24T13:22:01.139Z,99939.97
2022-11-24T13:25:16.079Z,99965.44
2022-11-24T13:29:12.942Z,99965.34
2022-11-24T13:32:23.490Z,99968.28
2022-11-24T13:35:26.241Z,99971.00
2022-11-24T13:38:44.346Z,99973.53
2022-11-24T13:41:49.940Z,99966.25
2022-11-24T13:44:54.485Z,99973.03
2022-11-24T13:47:56.904Z,99958.06
2022-11-24T13:51:00.674Z,99975.56
2022-11-24T13:54:03.262Z,99968.75
2022-11-24T13:57:38.367Z,99991.81
2022-11-24T14:01:35.163Z,99992.81
2022-11-24T14:04:39.570Z,99989.28
2022-11-24T14:07:44.437Z,99999.59
2022-11-24T14:10:47.312Z,100001.13
2022-11-24T14:13:49.821Z,100017.59
2022-11-24T14:17:14.591Z,100016.75
2022-11-24T14:20:24.156Z,100013.63
2022-11-24T14:23:26.880Z,100009.50
2022-11-24T14:26:36.553Z,100026.78
2022-11-24T14:29:54.168Z,99993.78
2022-11-24T14:32:58.571Z,100021.41
2022-11-24T14:36:01.001Z,100037.22
2022-11-24T14:39:04.063Z,100031.72
2022-11-24T14:42:19.861Z,100047.66
2022-11-24T14:45:22.297Z,100029.88
2022-11-24T14:48:49.358Z,100043.69
2022-11-24T14:52:02.881Z,100054.06
2022-11-24T14:55:21.735Z,100039.41
2022-11-24T14:58:30.903Z,100047.78
2022-11-24T15:01:34.855Z,100057.53
2022-11-24T15:05:02.565Z,100041.00
2022-11-24T15:08:06.097Z,100053.13
2022-11-24T15:11:09.001Z,100045.25
2022-11-24T15:14:31.157Z,100047.19
2022-11-24T15:17:33.888Z,100049.81
2022-11-24T15:20:41.718Z,100072.47
2022-11-24T15:24:04.741Z,100072.00
2022-11-24T15:27:07.365Z,100073.56
2022-11-24T15:30:12.534Z,100090.97
2022-11-24T15:33:18.959Z,100097.50
2022-11-24T15:36:21.352Z,100081.72
2022-11-24T15:39:23.910Z,100083.28
2022-11-24T15:42:26.423Z,100096.22
2022-11-24T15:45:28.864Z,100083.00
2022-11-24T15:48:31.796Z,100091.34
2022-11-24T15:51:35.739Z,100112.66
2022-11-24T15:54:38.277Z,100082.88
2022-11-24T15:57:40.719Z,100106.91
2022-11-24T16:00:43.826Z,100120.25
2022-11-24T16:03:48.336Z,100109.34
2022-11-24T16:06:51.312Z,100109.22
2022-11-24T16:09:53.875Z,100120.31
2022-11-24T16:12:56.377Z,100120.25
2022-11-24T16:15:58.824Z,100124.78
2022-11-24T16:19:01.574Z,100125.28
2022-11-24T16:22:06.536Z,100114.78
2022-11-24T16:25:09.430Z,100139.28
2022-11-24T16:28:11.884Z,100142.56
2022-11-24T16:31:16.218Z,100135.19
2022-11-24T16:34:19.068Z,100155.81
2022-11-24T16:37:21.789Z,100144.44
2022-11-24T16:40:24.367Z,100144.13
2022-11-24T16:43:28.894Z,100144.34
2022-11-24T16:46:31.359Z,100163.59
2022-11-24T16:49:34.018Z,100162.44
2022-11-24T16:52:37.563Z,100167.84
2022-11-24T16:55:39.960Z,100160.06
2022-11-24T16:58:42.676Z,100148.97
2022-11-24T17:01:46.661Z,100148.19
2022-11-24T17:04:52.305Z,100166.69
2022-11-24T17:07:54.743Z,100157.53
2022-11-24T17:10:57.605Z,100152.47
2022-11-24T17:14:00.104Z,100168.03
2022-11-24T17:17:03.120Z,100171.28
2022-11-24T17:20:06.342Z,100161.94
2022-11-24T17:23:09.424Z,100150.97
2022-11-24T17:26:13.972Z,100168.47
2022-11-24T17:29:17.230Z,100170.50
2022-11-24T17:32:19.892Z,100162.72
2022-11-24T17:35:22.505Z,100182.19
2022-11-24T17:38:25.211Z,100183.88
2022-11-24T17:41:28.047Z,100177.25
2022-11-24T17:44:33.225Z,100178.41
2022-11-24T17:47:36.151Z,100184.19
2022-11-24T17:50:38.789Z,100183.81
2022-11-24T17:53:43.054Z,100185.06
2022-11-24T17:56:47.068Z,100190.69
2022-11-24T17:59:53.173Z,100178.72
2022-11-24T18:02:57.700Z,100191.38
2022-11-24T18:06:10.971Z,100194.78
2022-11-24T18:09:13.928Z,100193.00
2022-11-24T18:12:16.508Z,100200.69
2022-11-24T18:15:19.251Z,100188.44
2022-11-24T18:18:21.702Z,100207.03
2022-11-24T18:21:24.920Z,100192.28
2022-11-24T18:24:27.540Z,100192.84
2022-11-24T18:27:30.191Z,100193.84
2022-11-24T18:30:32.943Z,100185.50
2022-11-24T18:33:39.745Z,100198.72
2022-11-24T18:36:44.956Z,100215.75
2022-11-24T18:39:47.560Z,100214.16
2022-11-24T18:42:50.263Z,100205.81
2022-11-24T18:45:54.054Z,100221.56
2022-11-24T18:48:57.056Z,100220.00
2022-11-24T18:51:59.631Z,100213.06
2022-11-24T18:55:04.069Z,100233.69
2022-11-24T18:58:06.725Z,100222.06
2022-11-24T19:01:11.947Z,100242.06
2022-11-24T19:04:15.305Z,100246.31
2022-11-24T19:07:20.481Z,100231.25
2022-11-24T19:10:23.370Z,100232.94
2022-11-24T19:13:26.098Z,100249.44
2022-11-24T19:16:29.208Z,100243.38
2022-11-24T19:19:34.293Z,100233.22
2022-11-24T19:22:37.263Z,100243.16
2022-11-24T19:25:39.973Z,100248.81
2022-11-24T19:28:42.639Z,100242.28
2022-11-24T19:31:47.115Z,100251.94
2022-11-24T19:34:49.909Z,100255.63
2022-11-24T19:37:52.887Z,100253.44
2022-11-24T19:41:04.058Z,100258.97
2022-11-24T19:44:08.349Z,100285.97
2022-11-24T19:47:11.174Z,100259.72
2022-11-24T19:50:16.580Z,100289.44
2022-11-24T19:53:19.431Z,100285.19
2022-11-24T19:56:24.187Z,100304.19
2022-11-24T19:59:27.695Z,100277.53
2022-11-24T20:02:31.758Z,100285.19
2022-11-24T20:05:34.491Z,100283.19
2022-11-24T20:08:38.338Z,100305.19
2022-11-24T20:11:41.167Z,100285.47
2022-11-24T20:14:43.885Z,100299.66
2022-11-24T20:17:46.609Z,100291.06
2022-11-24T20:20:49.112Z,100312.41
2022-11-24T20:23:55.192Z,100309.94
2022-11-24T20:26:58.976Z,100319.50
2022-11-24T20:30:01.823Z,100318.31
2022-11-24T20:33:05.521Z,100315.19
2022-11-24T20:36:13.633Z,100329.81
2022-11-24T20:39:18.935Z,100330.94
2022-11-24T20:42:21.947Z,100333.06
2022-11-24T20:45:24.751Z,100333.00
2022-11-24T20:48:27.627Z,100333.47
2022-11-24T20:51:33.160Z,100359.59
2022-11-24T20:54:36.480Z,100321.19
2022-11-24T20:57:39.486Z,100340.91
2022-11-24T21:00:42.229Z,100346.13
2022-11-24T21:03:46.497Z,100363.56
2022-11-24T21:06:49.293Z,100346.13
2022-11-24T21:09:52.494Z,100368.94
2022-11-24T21:12:55.106Z,100363.34
2022-11-24T21:15:57.819Z,100361.78
2022-11-24T21:19:02.557Z,100377.25
2022-11-24T21:22:05.028Z,100377.66
2022-11-24T21:25:08.125Z,100370.75
2022-11-24T21:28:10.625Z,100382.44
2022-11-24T21:31:16.420Z,100392.34
2022-11-24T21:34:19.525Z,100397.03
2022-11-24T21:37:22.206Z,100398.47
2022-11-24T21:40:25.225Z,100408.59
2022-11-24T21:43:29.752Z,100405.66
2022-11-24T21:46:38.965Z,100402.56
2022-11-24T21:49:45.022Z,100401.72
2022-11-24T21:52:47.519Z,100419.97
2022-11-24T21:56:00.668Z,100422.59
2022-11-24T21:59:03.527Z,100431.59
2022-11-24T22:02:10.278Z,100428.69
2022-11-24T22:05:15.532Z,100429.09
2022-11-24T22:08:17.932Z,100422.81
2022-11-24T22:11:22.785Z,100403.50
2022-11-24T22:14:25.485Z,100438.78
2022-11-24T22:17:30.912Z,100429.84
2022-11-24T22:20:33.329Z,100439.53
2022-11-24T22:23:36.332Z,100447.97
2022-11-24T22:26:38.720Z,100437.81
2022-11-24T22:29:41.305Z,100436.47
2022-11-24T22:32:43.810Z,100442.19
2022-11-24T22:35:55.767Z,100460.28
2022-11-24T22:39:03.480Z,100445.19
2022-11-24T22:42:05.886Z,100459.28
2022-11-24T22:45:08.862Z,100469.13
2022-11-24T22:48:11.309Z,100476.41
2022-11-24T22:51:18.428Z,100481.47
2022-11-24T22:54:20.883Z,100471.25
2022-11-24T22:57:23.337Z,100486.59
2022-11-24T23:00:26.952Z,100483.69
2022-11-24T23:03:29.469Z,100496.44
2022-11-24T23:06:32.815Z,100488.03
2022-11-24T23:09:35.265Z,100486.78
2022-11-24T23:12:37.656Z,100500.53
2022-11-24T23:15:40.101Z,100489.84
2022-11-24T23:18:43.380Z,100513.13
2022-11-24T23:21:45.861Z,100513.41
2022-11-24T23:24:48.395Z,100497.16
2022-11-24T23:27:50.931Z,100500.53
2022-11-24T23:30:53.538Z,100515.13
2022-11-24T23:33:58.007Z,100498.66
2022-11-24T23:37:00.405Z,100518.28
2022-11-24T23:40:02.933Z,100490.81
2022-11-24T23:43:05.293Z,100505.22
2022-11-24T23:46:12.911Z,100513.94
2022-11-24T23:49:15.369Z,100525.13
2022-11-24T23:52:17.878Z,100520.94
2022-11-24T23:55:20.448Z,100524.25
2022-11-24T23:58:23.155Z,100539.28
